sensor_id;sensor_type;location;lat;lon;timestamp;temperature;humidity
3202;DHT22;34843;48.744;8.958;2023-02-17T00:01:27;6.10;99.90
3202;DHT22;34843;48.744;8.958;2023-02-17T00:03:53;6.00;99.90
3202;DHT22;34843;48.744;8.958;2023-02-17T00:06:21;5.90;99.90
3202;DHT22;34843;48.744;8.958;2023-02-17T00:08:48;5.90;99.90
3202;DHT22;34843;48.744;8.958;2023-02-17T00:11:15;5.90;99.90
3202;DHT22;34843;48.744;8.958;2023-02-17T00:13:40;6.00;99.90
3202;DHT22;34843;48.744;8.958;2023-02-17T00:16:15;6.00;99.90
3202;DHT22;34843;48.744;8.958;2023-02-17T00:18:41;6.10;99.90
3202;DHT22;34843;48.744;8.958;2023-02-17T00:21:12;6.10;99.90
3202;DHT22;34843;48.744;8.958;2023-02-17T00:23:38;6.20;99.90
3202;DHT22;34843;48.744;8.958;2023-02-17T00:26:04;6.30;99.90
3202;DHT22;34843;48.744;8.958;2023-02-17T00:28:30;6.40;99.90
3202;DHT22;34843;48.744;8.958;2023-02-17T00:30:56;6.50;99.90
3202;DHT22;34843;48.744;8.958;2023-02-17T00:33:21;6.60;99.90
3202;DHT22;34843;48.744;8.958;2023-02-17T00:35:47;6.70;99.90
3202;DHT22;34843;48.744;8.958;2023-02-17T00:38:12;6.70;99.90
3202;DHT22;34843;48.744;8.958;2023-02-17T00:40:38;6.70;99.90
3202;DHT22;34843;48.744;8.958;2023-02-17T00:43:03;6.70;99.90
3202;DHT22;34843;48.744;8.958;2023-02-17T00:45:29;6.70;99.90
3202;DHT22;34843;48.744;8.958;2023-02-17T00:47:54;6.70;99.90
3202;DHT22;34843;48.744;8.958;2023-02-17T00:50:20;6.60;99.90
3202;DHT22;34843;48.744;8.958;2023-02-17T00:52:45;6.70;99.90
3202;DHT22;34843;48.744;8.958;2023-02-17T00:55:11;6.70;99.90
3202;DHT22;34843;48.744;8.958;2023-02-17T00:57:36;6.60;99.90
3202;DHT22;34843;48.744;8.958;2023-02-17T01:00:02;6.60;99.90
3202;DHT22;34843;48.744;8.958;2023-02-17T01:02:28;6.60;99.90
3202;DHT22;34843;48.744;8.958;2023-02-17T01:04:54;6.60;99.90
3202;DHT22;34843;48.744;8.958;2023-02-17T01:07:19;6.60;99.90
3202;DHT22;34843;48.744;8.958;2023-02-17T01:09:45;6.60;99.90
3202;DHT22;34843;48.744;8.958;2023-02-17T01:12:11;6.70;99.90
3202;DHT22;34843;48.744;8.958;2023-02-17T01:14:37;6.80;99.90
3202;DHT22;34843;48.744;8.958;2023-02-17T01:17:02;6.90;99.90
3202;DHT22;34843;48.744;8.958;2023-02-17T01:19:28;6.90;99.90
3202;DHT22;34843;48.744;8.958;2023-02-17T01:21:53;7.00;99.90
3202;DHT22;34843;48.744;8.958;2023-02-17T01:24:18;7.00;99.90
3202;DHT22;34843;48.744;8.958;2023-02-17T01:26:44;7.10;99.90
3202;DHT22;34843;48.744;8.958;2023-02-17T01:29:09;7.20;99.90
3202;DHT22;34843;48.744;8.958;2023-02-17T01:31:35;7.20;99.90
3202;DHT22;34843;48.744;8.958;2023-02-17T01:34:02;7.20;99.90
3202;DHT22;34843;48.744;8.958;2023-02-17T01:36:28;7.20;99.90
3202;DHT22;34843;48.744;8.958;2023-02-17T01:38:54;7.20;99.90
3202;DHT22;34843;48.744;8.958;2023-02-17T01:41:21;7.20;99.90
3202;DHT22;34843;48.744;8.958;2023-02-17T01:46:33;7.10;99.90
3202;DHT22;34843;48.744;8.958;2023-02-17T01:48:59;7.10;99.90
3202;DHT22;34843;48.744;8.958;2023-02-17T01:51:31;7.10;99.90
3202;DHT22;34843;48.744;8.958;2023-02-17T01:54:08;7.00;99.90
3202;DHT22;34843;48.744;8.958;2023-02-17T01:56:37;7.00;99.90
3202;DHT22;34843;48.744;8.958;2023-02-17T01:59:08;7.00;99.90
3202;DHT22;34843;48.744;8.958;2023-02-17T02:01:35;6.90;99.90
3202;DHT22;34843;48.744;8.958;2023-02-17T02:04:03;6.90;99.90
3202;DHT22;34843;48.744;8.958;2023-02-17T02:06:29;6.80;99.90
3202;DHT22;34843;48.744;8.958;2023-02-17T02:09:05;6.80;99.90
3202;DHT22;34843;48.744;8.958;2023-02-17T02:11:33;6.80;99.90
3202;DHT22;34843;48.744;8.958;2023-02-17T02:13:59;6.70;99.90
3202;DHT22;34843;48.744;8.958;2023-02-17T02:16:45;6.70;99.90
3202;DHT22;34843;48.744;8.958;2023-02-17T02:27:55;6.40;99.90
3202;DHT22;34843;48.744;8.958;2023-02-17T02:30:49;6.50;99.90
3202;DHT22;34843;48.744;8.958;2023-02-17T02:38:34;6.70;99.90
3202;DHT22;34843;48.744;8.958;2023-02-17T02:41:12;6.80;99.90
3202;DHT22;34843;48.744;8.958;2023-02-17T02:43:39;6.90;99.90
3202;DHT22;34843;48.744;8.958;2023-02-17T02:46:05;7.00;99.90
3202;DHT22;34843;48.744;8.958;2023-02-17T02:48:31;7.00;99.90
3202;DHT22;34843;48.744;8.958;2023-02-17T02:56:12;7.10;99.90
3202;DHT22;34843;48.744;8.958;2023-02-17T03:01:55;7.00;99.90
3202;DHT22;34843;48.744;8.958;2023-02-17T03:04:31;6.90;99.90
3202;DHT22;34843;48.744;8.958;2023-02-17T03:07:08;6.80;99.90
3202;DHT22;34843;48.744;8.958;2023-02-17T03:09:35;6.80;99.90
3202;DHT22;34843;48.744;8.958;2023-02-17T03:12:02;6.80;99.90
3202;DHT22;34843;48.744;8.958;2023-02-17T03:14:27;6.80;99.90
3202;DHT22;34843;48.744;8.958;2023-02-17T03:16:53;6.90;99.90
3202;DHT22;34843;48.744;8.958;2023-02-17T03:19:22;6.90;99.90
3202;DHT22;34843;48.744;8.958;2023-02-17T03:21:53;7.00;99.90
3202;DHT22;34843;48.744;8.958;2023-02-17T03:24:20;7.00;99.90
3202;DHT22;34843;48.744;8.958;2023-02-17T03:26:45;7.00;99.90
3202;DHT22;34843;48.744;8.958;2023-02-17T03:29:11;6.90;99.90
3202;DHT22;34843;48.744;8.958;2023-02-17T03:31:38;6.90;99.90
3202;DHT22;34843;48.744;8.958;2023-02-17T03:34:03;6.90;99.90
3202;DHT22;34843;48.744;8.958;2023-02-17T03:36:29;6.80;99.90
3202;DHT22;34843;48.744;8.958;2023-02-17T03:38:55;6.80;99.90
3202;DHT22;34843;48.744;8.958;2023-02-17T03:41:21;6.80;99.90
3202;DHT22;34843;48.744;8.958;2023-02-17T03:43:47;6.80;99.90
3202;DHT22;34843;48.744;8.958;2023-02-17T03:46:14;6.70;99.90
3202;DHT22;34843;48.744;8.958;2023-02-17T03:48:40;6.70;99.90
3202;DHT22;34843;48.744;8.958;2023-02-17T03:51:17;6.70;99.90
3202;DHT22;34843;48.744;8.958;2023-02-17T03:53:43;6.60;99.90
3202;DHT22;34843;48.744;8.958;2023-02-17T03:56:09;6.60;99.90
3202;DHT22;34843;48.744;8.958;2023-02-17T03:58:35;6.60;99.90
3202;DHT22;34843;48.744;8.958;2023-02-17T04:01:00;6.70;99.90
3202;DHT22;34843;48.744;8.958;2023-02-17T04:03:26;6.80;99.90
3202;DHT22;34843;48.744;8.958;2023-02-17T04:05:52;7.00;99.90
3202;DHT22;34843;48.744;8.958;2023-02-17T04:08:19;7.00;99.90
3202;DHT22;34843;48.744;8.958;2023-02-17T04:10:44;7.10;99.90
3202;DHT22;34843;48.744;8.958;2023-02-17T04:13:10;7.20;99.90
3202;DHT22;34843;48.744;8.958;2023-02-17T04:15:35;7.40;99.90
3202;DHT22;34843;48.744;8.958;2023-02-17T04:18:01;7.40;99.90
3202;DHT22;34843;48.744;8.958;2023-02-17T04:20:26;7.50;99.90
3202;DHT22;34843;48.744;8.958;2023-02-17T04:22:52;7.60;99.90
3202;DHT22;34843;48.744;8.958;2023-02-17T04:25:18;7.70;99.90
3202;DHT22;34843;48.744;8.958;2023-02-17T04:27:43;7.80;99.90
3202;DHT22;34843;48.744;8.958;2023-02-17T04:30:09;7.90;99.90
3202;DHT22;34843;48.744;8.958;2023-02-17T04:32:35;8.00;99.90
3202;DHT22;34843;48.744;8.958;2023-02-17T04:35:00;8.10;99.90
3202;DHT22;34843;48.744;8.958;2023-02-17T04:37:26;8.20;99.90
3202;DHT22;34843;48.744;8.958;2023-02-17T04:39:51;8.40;99.90
3202;DHT22;34843;48.744;8.958;2023-02-17T04:42:17;8.50;99.90
3202;DHT22;34843;48.744;8.958;2023-02-17T04:44:42;8.50;99.90
3202;DHT22;34843;48.744;8.958;2023-02-17T04:47:08;8.50;99.90
3202;DHT22;34843;48.744;8.958;2023-02-17T04:49:33;8.50;99.90
3202;DHT22;34843;48.744;8.958;2023-02-17T04:51:59;8.50;99.90
3202;DHT22;34843;48.744;8.958;2023-02-17T04:56:52;8.40;99.90
3202;DHT22;34843;48.744;8.958;2023-02-17T04:59:18;8.40;99.90
3202;DHT22;34843;48.744;8.958;2023-02-17T05:01:43;8.40;99.90
3202;DHT22;34843;48.744;8.958;2023-02-17T05:04:09;8.40;99.90
3202;DHT22;34843;48.744;8.958;2023-02-17T05:06:34;8.40;99.90
3202;DHT22;34843;48.744;8.958;2023-02-17T05:09:00;8.40;99.90
3202;DHT22;34843;48.744;8.958;2023-02-17T05:11:25;8.40;99.90
3202;DHT22;34843;48.744;8.958;2023-02-17T05:13:51;8.40;99.90
3202;DHT22;34843;48.744;8.958;2023-02-17T05:16:16;8.30;99.90
3202;DHT22;34843;48.744;8.958;2023-02-17T05:18:42;8.30;99.90
3202;DHT22;34843;48.744;8.958;2023-02-17T05:21:07;8.20;99.90
3202;DHT22;34843;48.744;8.958;2023-02-17T05:23:33;8.20;99.90
3202;DHT22;34843;48.744;8.958;2023-02-17T05:26:06;8.20;99.90
3202;DHT22;34843;48.744;8.958;2023-02-17T05:28:31;8.20;99.90
3202;DHT22;34843;48.744;8.958;2023-02-17T05:30:57;8.20;99.90
3202;DHT22;34843;48.744;8.958;2023-02-17T05:33:22;8.20;99.90
3202;DHT22;34843;48.744;8.958;2023-02-17T05:35:48;8.30;99.90
3202;DHT22;34843;48.744;8.958;2023-02-17T05:38:13;8.30;99.90
3202;DHT22;34843;48.744;8.958;2023-02-17T05:40:39;8.30;99.90
3202;DHT22;34843;48.744;8.958;2023-02-17T05:43:04;8.30;99.90
3202;DHT22;34843;48.744;8.958;2023-02-17T05:45:30;8.30;99.90
3202;DHT22;34843;48.744;8.958;2023-02-17T05:47:55;8.30;99.90
3202;DHT22;34843;48.744;8.958;2023-02-17T05:50:21;8.40;99.90
3202;DHT22;34843;48.744;8.958;2023-02-17T05:52:46;8.40;99.90
3202;DHT22;34843;48.744;8.958;2023-02-17T05:55:12;8.40;99.90
3202;DHT22;34843;48.744;8.958;2023-02-17T05:57:38;8.40;99.90
3202;DHT22;34843;48.744;8.958;2023-02-17T06:00:03;8.50;99.90
3202;DHT22;34843;48.744;8.958;2023-02-17T06:02:29;8.50;99.90
3202;DHT22;34843;48.744;8.958;2023-02-17T06:04:55;8.50;99.90
3202;DHT22;34843;48.744;8.958;2023-02-17T06:07:20;8.50;99.90
3202;DHT22;34843;48.744;8.958;2023-02-17T06:09:46;8.50;99.90
3202;DHT22;34843;48.744;8.958;2023-02-17T06:12:11;8.60;99.90
3202;DHT22;34843;48.744;8.958;2023-02-17T06:14:36;8.70;99.90
3202;DHT22;34843;48.744;8.958;2023-02-17T06:17:02;8.60;99.90
3202;DHT22;34843;48.744;8.958;2023-02-17T06:19:28;8.60;99.90
3202;DHT22;34843;48.744;8.958;2023-02-17T06:21:54;8.60;99.90
3202;DHT22;34843;48.744;8.958;2023-02-17T06:24:21;8.60;99.90
3202;DHT22;34843;48.744;8.958;2023-02-17T06:26:47;8.50;99.90
3202;DHT22;34843;48.744;8.958;2023-02-17T06:29:12;8.50;99.90
3202;DHT22;34843;48.744;8.958;2023-02-17T06:31:38;8.50;99.90
3202;DHT22;34843;48.744;8.958;2023-02-17T06:34:03;8.50;99.90
3202;DHT22;34843;48.744;8.958;2023-02-17T06:36:29;8.60;99.90
3202;DHT22;34843;48.744;8.958;2023-02-17T06:38:54;8.50;99.90
3202;DHT22;34843;48.744;8.958;2023-02-17T06:41:20;8.50;99.90
3202;DHT22;34843;48.744;8.958;2023-02-17T06:43:45;8.60;99.90
3202;DHT22;34843;48.744;8.958;2023-02-17T06:46:11;8.60;99.90
3202;DHT22;34843;48.744;8.958;2023-02-17T06:48:36;8.60;99.90
3202;DHT22;34843;48.744;8.958;2023-02-17T06:51:02;8.60;99.90
3202;DHT22;34843;48.744;8.958;2023-02-17T06:53:28;8.70;99.90
3202;DHT22;34843;48.744;8.958;2023-02-17T06:55:53;8.70;99.90
3202;DHT22;34843;48.744;8.958;2023-02-17T06:58:19;8.70;99.90
3202;DHT22;34843;48.744;8.958;2023-02-17T07:00:44;8.70;99.90
3202;DHT22;34843;48.744;8.958;2023-02-17T07:03:10;8.70;99.90
3202;DHT22;34843;48.744;8.958;2023-02-17T07:05:36;8.70;99.90
3202;DHT22;34843;48.744;8.958;2023-02-17T07:08:03;8.70;99.90
3202;DHT22;34843;48.744;8.958;2023-02-17T07:10:29;8.70;99.90
3202;DHT22;34843;48.744;8.958;2023-02-17T07:12:54;8.80;99.90
3202;DHT22;34843;48.744;8.958;2023-02-17T07:15:20;8.80;99.90
3202;DHT22;34843;48.744;8.958;2023-02-17T07:17:46;8.80;99.90
3202;DHT22;34843;48.744;8.958;2023-02-17T07:20:11;8.80;99.90
3202;DHT22;34843;48.744;8.958;2023-02-17T07:22:37;8.80;99.90
3202;DHT22;34843;48.744;8.958;2023-02-17T07:25:04;8.90;99.90
3202;DHT22;34843;48.744;8.958;2023-02-17T07:27:29;8.90;99.90
3202;DHT22;34843;48.744;8.958;2023-02-17T07:29:56;8.90;99.90
3202;DHT22;34843;48.744;8.958;2023-02-17T07:32:21;8.90;99.90
3202;DHT22;34843;48.744;8.958;2023-02-17T07:34:47;8.90;99.90
3202;DHT22;34843;48.744;8.958;2023-02-17T07:37:12;9.00;99.90
3202;DHT22;34843;48.744;8.958;2023-02-17T07:39:38;9.00;99.90
3202;DHT22;34843;48.744;8.958;2023-02-17T07:42:03;9.10;99.90
3202;DHT22;34843;48.744;8.958;2023-02-17T07:44:31;9.00;99.90
3202;DHT22;34843;48.744;8.958;2023-02-17T07:46:57;9.20;99.90
3202;DHT22;34843;48.744;8.958;2023-02-17T07:49:22;9.30;99.90
3202;DHT22;34843;48.744;8.958;2023-02-17T07:51:48;9.30;99.90
3202;DHT22;34843;48.744;8.958;2023-02-17T07:54:13;9.30;99.90
3202;DHT22;34843;48.744;8.958;2023-02-17T07:56:39;9.40;99.90
3202;DHT22;34843;48.744;8.958;2023-02-17T07:59:09;9.60;99.90
3202;DHT22;34843;48.744;8.958;2023-02-17T08:01:35;9.70;99.90
3202;DHT22;34843;48.744;8.958;2023-02-17T08:04:00;9.80;99.90
3202;DHT22;34843;48.744;8.958;2023-02-17T08:06:26;9.90;99.90
3202;DHT22;34843;48.744;8.958;2023-02-17T08:08:53;10.00;99.90
3202;DHT22;34843;48.744;8.958;2023-02-17T08:11:38;10.00;99.90
3202;DHT22;34843;48.744;8.958;2023-02-17T08:14:24;10.20;99.90
3202;DHT22;34843;48.744;8.958;2023-02-17T08:16:50;10.30;99.90
3202;DHT22;34843;48.744;8.958;2023-02-17T08:19:16;10.40;99.90
3202;DHT22;34843;48.744;8.958;2023-02-17T08:21:42;10.50;99.90
3202;DHT22;34843;48.744;8.958;2023-02-17T08:24:07;10.60;99.90
3202;DHT22;34843;48.744;8.958;2023-02-17T08:26:33;10.60;99.90
3202;DHT22;34843;48.744;8.958;2023-02-17T08:28:58;10.60;99.90
3202;DHT22;34843;48.744;8.958;2023-02-17T08:31:26;10.50;99.90
3202;DHT22;34843;48.744;8.958;2023-02-17T08:33:53;10.50;99.90
3202;DHT22;34843;48.744;8.958;2023-02-17T08:36:19;10.40;99.90
3202;DHT22;34843;48.744;8.958;2023-02-17T08:38:47;10.60;99.90
3202;DHT22;34843;48.744;8.958;2023-02-17T08:41:23;10.60;99.90
3202;DHT22;34843;48.744;8.958;2023-02-17T08:43:49;10.80;99.90
3202;DHT22;34843;48.744;8.958;2023-02-17T08:46:16;10.90;99.90
3202;DHT22;34843;48.744;8.958;2023-02-17T08:48:42;11.00;99.90
3202;DHT22;34843;48.744;8.958;2023-02-17T08:51:12;11.00;99.90
3202;DHT22;34843;48.744;8.958;2023-02-17T08:53:38;11.10;99.90
3202;DHT22;34843;48.744;8.958;2023-02-17T08:56:05;11.10;99.90
3202;DHT22;34843;48.744;8.958;2023-02-17T08:58:31;11.10;99.90
3202;DHT22;34843;48.744;8.958;2023-02-17T09:00:57;11.00;99.90
3202;DHT22;34843;48.744;8.958;2023-02-17T09:03:22;10.90;99.90
3202;DHT22;34843;48.744;8.958;2023-02-17T09:05:48;10.80;99.90
3202;DHT22;34843;48.744;8.958;2023-02-17T09:08:14;10.70;99.90
3202;DHT22;34843;48.744;8.958;2023-02-17T09:10:39;10.60;99.90
3202;DHT22;34843;48.744;8.958;2023-02-17T09:13:05;10.50;99.90
3202;DHT22;34843;48.744;8.958;2023-02-17T09:15:30;10.50;99.90
3202;DHT22;34843;48.744;8.958;2023-02-17T09:17:56;10.50;99.90
3202;DHT22;34843;48.744;8.958;2023-02-17T09:20:21;10.60;99.90
3202;DHT22;34843;48.744;8.958;2023-02-17T09:22:47;10.70;99.90
3202;DHT22;34843;48.744;8.958;2023-02-17T09:25:12;10.70;99.90
3202;DHT22;34843;48.744;8.958;2023-02-17T09:27:38;10.90;99.90
3202;DHT22;34843;48.744;8.958;2023-02-17T09:30:04;11.00;99.90
3202;DHT22;34843;48.744;8.958;2023-02-17T09:32:29;11.20;99.90
3202;DHT22;34843;48.744;8.958;2023-02-17T09:34:55;11.50;99.90
3202;DHT22;34843;48.744;8.958;2023-02-17T09:37:23;11.60;99.90
3202;DHT22;34843;48.744;8.958;2023-02-17T09:39:49;11.90;99.90
3202;DHT22;34843;48.744;8.958;2023-02-17T09:42:22;12.00;99.90
3202;DHT22;34843;48.744;8.958;2023-02-17T09:44:51;12.10;99.90
3202;DHT22;34843;48.744;8.958;2023-02-17T09:47:23;12.20;99.90
3202;DHT22;34843;48.744;8.958;2023-02-17T09:50:11;12.20;99.90
3202;DHT22;34843;48.744;8.958;2023-02-17T09:52:44;12.20;99.90
3202;DHT22;34843;48.744;8.958;2023-02-17T09:55:25;12.20;99.90
3202;DHT22;34843;48.744;8.958;2023-02-17T09:58:12;12.40;99.90
3202;DHT22;34843;48.744;8.958;2023-02-17T10:00:55;12.70;99.90
3202;DHT22;34843;48.744;8.958;2023-02-17T10:03:35;13.00;99.90
3202;DHT22;34843;48.744;8.958;2023-02-17T10:06:12;13.30;99.90
3202;DHT22;34843;48.744;8.958;2023-02-17T10:11:41;13.60;99.90
3202;DHT22;34843;48.744;8.958;2023-02-17T10:17:07;13.30;99.90
3202;DHT22;34843;48.744;8.958;2023-02-17T10:22:15;13.00;99.90
3202;DHT22;34843;48.744;8.958;2023-02-17T10:24:41;13.20;99.90
3202;DHT22;34843;48.744;8.958;2023-02-17T10:35:16;14.40;99.90
3202;DHT22;34843;48.744;8.958;2023-02-17T10:37:46;14.50;99.90
3202;DHT22;34843;48.744;8.958;2023-02-17T10:40:19;14.70;99.90
3202;DHT22;34843;48.744;8.958;2023-02-17T10:42:52;14.80;99.90
3202;DHT22;34843;48.744;8.958;2023-02-17T10:45:34;14.90;99.90
3202;DHT22;34843;48.744;8.958;2023-02-17T10:48:22;14.80;99.90
3202;DHT22;34843;48.744;8.958;2023-02-17T10:50:49;15.00;99.90
3202;DHT22;34843;48.744;8.958;2023-02-17T10:53:18;14.80;99.90
3202;DHT22;34843;48.744;8.958;2023-02-17T10:58:59;14.80;99.90
3202;DHT22;34843;48.744;8.958;2023-02-17T11:01:27;14.60;99.90
3202;DHT22;34843;48.744;8.958;2023-02-17T11:06:26;14.60;99.90
3202;DHT22;34843;48.744;8.958;2023-02-17T11:08:57;14.80;99.90
3202;DHT22;34843;48.744;8.958;2023-02-17T11:11:26;14.90;99.90
3202;DHT22;34843;48.744;8.958;2023-02-17T11:19:03;15.00;99.90
3202;DHT22;34843;48.744;8.958;2023-02-17T11:21:29;14.80;99.90
3202;DHT22;34843;48.744;8.958;2023-02-17T11:24:00;14.80;99.90
3202;DHT22;34843;48.744;8.958;2023-02-17T11:26:29;15.00;99.90
3202;DHT22;34843;48.744;8.958;2023-02-17T11:31:34;15.30;99.90
3202;DHT22;34843;48.744;8.958;2023-02-17T11:34:13;15.30;99.90
3202;DHT22;34843;48.744;8.958;2023-02-17T11:36:42;15.10;99.90
3202;DHT22;34843;48.744;8.958;2023-02-17T11:39:19;15.00;99.90
3202;DHT22;34843;48.744;8.958;2023-02-17T11:41:45;14.80;99.90
3202;DHT22;34843;48.744;8.958;2023-02-17T11:44:20;14.70;99.90
3202;DHT22;34843;48.744;8.958;2023-02-17T11:49:39;14.70;99.90
3202;DHT22;34843;48.744;8.958;2023-02-17T11:55:22;14.50;99.90
3202;DHT22;34843;48.744;8.958;2023-02-17T11:58:03;14.40;99.90
3202;DHT22;34843;48.744;8.958;2023-02-17T12:00:44;14.40;99.90
3202;DHT22;34843;48.744;8.958;2023-02-17T12:03:42;14.20;99.90
3202;DHT22;34843;48.744;8.958;2023-02-17T12:06:53;14.30;99.90
3202;DHT22;34843;48.744;8.958;2023-02-17T12:09:49;14.30;99.90
3202;DHT22;34843;48.744;8.958;2023-02-17T12:12:17;14.50;99.90
3202;DHT22;34843;48.744;8.958;2023-02-17T12:14:54;14.50;99.90
3202;DHT22;34843;48.744;8.958;2023-02-17T12:17:49;14.50;99.90
3202;DHT22;34843;48.744;8.958;2023-02-17T12:26:05;14.60;99.90
3202;DHT22;34843;48.744;8.958;2023-02-17T12:36:45;14.40;99.90
3202;DHT22;34843;48.744;8.958;2023-02-17T12:39:22;14.40;99.90
3202;DHT22;34843;48.744;8.958;2023-02-17T12:42:04;14.40;99.90
3202;DHT22;34843;48.744;8.958;2023-02-17T12:44:34;14.50;99.90
3202;DHT22;34843;48.744;8.958;2023-02-17T12:47:08;14.70;99.90
3202;DHT22;34843;48.744;8.958;2023-02-17T12:49:47;14.80;99.90
3202;DHT22;34843;48.744;8.958;2023-02-17T12:52:21;14.80;99.90
3202;DHT22;34843;48.744;8.958;2023-02-17T12:55:11;14.80;99.90
3202;DHT22;34843;48.744;8.958;2023-02-17T12:58:00;14.60;99.90
3202;DHT22;34843;48.744;8.958;2023-02-17T13:00:35;14.70;99.90
3202;DHT22;34843;48.744;8.958;2023-02-17T13:03:01;14.80;99.90
3202;DHT22;34843;48.744;8.958;2023-02-17T13:08:35;14.60;99.90
3202;DHT22;34843;48.744;8.958;2023-02-17T13:11:10;14.60;99.90
3202;DHT22;34843;48.744;8.958;2023-02-17T13:13:36;14.70;99.90
3202;DHT22;34843;48.744;8.958;2023-02-17T13:16:10;14.80;99.90
3202;DHT22;34843;48.744;8.958;2023-02-17T13:18:39;14.80;99.90
3202;DHT22;34843;48.744;8.958;2023-02-17T13:21:16;14.90;99.90
3202;DHT22;34843;48.744;8.958;2023-02-17T13:23:44;14.70;99.90
3202;DHT22;34843;48.744;8.958;2023-02-17T13:28:42;14.60;99.90
3202;DHT22;34843;48.744;8.958;2023-02-17T13:31:20;14.50;99.90
3202;DHT22;34843;48.744;8.958;2023-02-17T13:33:55;14.50;99.90
3202;DHT22;34843;48.744;8.958;2023-02-17T13:36:35;14.60;99.90
3202;DHT22;34843;48.744;8.958;2023-02-17T13:39:28;14.60;99.90
3202;DHT22;34843;48.744;8.958;2023-02-17T13:41:55;14.70;99.90
3202;DHT22;34843;48.744;8.958;2023-02-17T13:44:30;14.80;99.90
3202;DHT22;34843;48.744;8.958;2023-02-17T13:47:02;14.80;99.90
3202;DHT22;34843;48.744;8.958;2023-02-17T13:49:32;14.90;99.90
3202;DHT22;34843;48.744;8.958;2023-02-17T13:52:15;14.90;99.90
3202;DHT22;34843;48.744;8.958;2023-02-17T13:54:54;14.80;99.90
3202;DHT22;34843;48.744;8.958;2023-02-17T13:59:50;14.80;99.90
3202;DHT22;34843;48.744;8.958;2023-02-17T14:02:18;14.80;99.90
3202;DHT22;34843;48.744;8.958;2023-02-17T14:04:44;14.40;99.90
3202;DHT22;34843;48.744;8.958;2023-02-17T14:07:11;14.40;99.90
3202;DHT22;34843;48.744;8.958;2023-02-17T14:09:36;14.30;99.90
3202;DHT22;34843;48.744;8.958;2023-02-17T14:12:05;14.10;99.90
3202;DHT22;34843;48.744;8.958;2023-02-17T14:14:36;14.00;99.90
3202;DHT22;34843;48.744;8.958;2023-02-17T14:17:11;13.80;99.90
3202;DHT22;34843;48.744;8.958;2023-02-17T14:19:43;13.80;99.90
3202;DHT22;34843;48.744;8.958;2023-02-17T14:22:42;13.80;99.90
3202;DHT22;34843;48.744;8.958;2023-02-17T14:25:12;13.70;99.90
3202;DHT22;34843;48.744;8.958;2023-02-17T14:27:46;13.70;99.90
3202;DHT22;34843;48.744;8.958;2023-02-17T14:30:35;13.60;99.90
3202;DHT22;34843;48.744;8.958;2023-02-17T14:33:01;13.50;99.90
3202;DHT22;34843;48.744;8.958;2023-02-17T14:35:27;13.40;99.90
3202;DHT22;34843;48.744;8.958;2023-02-17T14:37:53;13.30;99.90
3202;DHT22;34843;48.744;8.958;2023-02-17T14:40:21;13.20;99.90
3202;DHT22;34843;48.744;8.958;2023-02-17T14:42:50;13.20;99.90
3202;DHT22;34843;48.744;8.958;2023-02-17T14:45:17;13.10;99.90
3202;DHT22;34843;48.744;8.958;2023-02-17T14:47:43;13.00;99.90
3202;DHT22;34843;48.744;8.958;2023-02-17T14:50:10;12.90;99.90
3202;DHT22;34843;48.744;8.958;2023-02-17T14:52:41;12.90;99.90
3202;DHT22;34843;48.744;8.958;2023-02-17T14:55:28;12.90;99.90
3202;DHT22;34843;48.744;8.958;2023-02-17T14:57:55;13.00;99.90
3202;DHT22;34843;48.744;8.958;2023-02-17T15:00:21;13.00;99.90
3202;DHT22;34843;48.744;8.958;2023-02-17T15:02:47;13.10;99.90
3202;DHT22;34843;48.744;8.958;2023-02-17T15:05:12;13.10;99.90
3202;DHT22;34843;48.744;8.958;2023-02-17T15:07:38;13.20;99.90
3202;DHT22;34843;48.744;8.958;2023-02-17T15:13:05;13.60;99.90
3202;DHT22;34843;48.744;8.958;2023-02-17T15:15:31;13.80;99.90
3202;DHT22;34843;48.744;8.958;2023-02-17T15:17:57;13.70;99.90
3202;DHT22;34843;48.744;8.958;2023-02-17T15:20:23;13.70;99.90
3202;DHT22;34843;48.744;8.958;2023-02-17T15:22:49;13.60;99.90
3202;DHT22;34843;48.744;8.958;2023-02-17T15:25:19;13.60;99.90
3202;DHT22;34843;48.744;8.958;2023-02-17T15:27:46;13.60;99.90
3202;DHT22;34843;48.744;8.958;2023-02-17T15:30:17;13.50;99.90
3202;DHT22;34843;48.744;8.958;2023-02-17T15:32:43;13.50;99.90
3202;DHT22;34843;48.744;8.958;2023-02-17T15:37:45;13.50;99.90
3202;DHT22;34843;48.744;8.958;2023-02-17T15:40:16;13.50;99.90
3202;DHT22;34843;48.744;8.958;2023-02-17T15:42:43;13.40;99.90
3202;DHT22;34843;48.744;8.958;2023-02-17T15:45:11;13.30;99.90
3202;DHT22;34843;48.744;8.958;2023-02-17T15:47:37;13.20;99.90
3202;DHT22;34843;48.744;8.958;2023-02-17T15:50:04;13.20;99.90
3202;DHT22;34843;48.744;8.958;2023-02-17T15:52:31;13.10;99.90
3202;DHT22;34843;48.744;8.958;2023-02-17T15:54:56;13.10;99.90
3202;DHT22;34843;48.744;8.958;2023-02-17T15:57:24;13.10;99.90
3202;DHT22;34843;48.744;8.958;2023-02-17T15:59:50;13.10;99.90
3202;DHT22;34843;48.744;8.958;2023-02-17T16:02:21;13.00;99.90
3202;DHT22;34843;48.744;8.958;2023-02-17T16:04:47;12.90;99.90
3202;DHT22;34843;48.744;8.958;2023-02-17T16:07:13;12.70;99.90
3202;DHT22;34843;48.744;8.958;2023-02-17T16:09:39;12.60;99.90
3202;DHT22;34843;48.744;8.958;2023-02-17T16:12:17;12.50;99.90
3202;DHT22;34843;48.744;8.958;2023-02-17T16:14:43;12.40;99.90
3202;DHT22;34843;48.744;8.958;2023-02-17T16:17:14;12.30;99.90
3202;DHT22;34843;48.744;8.958;2023-02-17T16:19:40;12.30;99.90
3202;DHT22;34843;48.744;8.958;2023-02-17T16:22:06;12.30;99.90
3202;DHT22;34843;48.744;8.958;2023-02-17T16:24:32;12.30;99.90
3202;DHT22;34843;48.744;8.958;2023-02-17T16:26:57;12.30;99.90
3202;DHT22;34843;48.744;8.958;2023-02-17T16:29:23;12.30;99.90
3202;DHT22;34843;48.744;8.958;2023-02-17T16:31:49;12.30;99.90
3202;DHT22;34843;48.744;8.958;2023-02-17T16:34:20;12.30;99.90
3202;DHT22;34843;48.744;8.958;2023-02-17T16:36:47;12.20;99.90
3202;DHT22;34843;48.744;8.958;2023-02-17T16:39:15;12.20;99.90
3202;DHT22;34843;48.744;8.958;2023-02-17T16:41:42;12.20;99.90
3202;DHT22;34843;48.744;8.958;2023-02-17T16:44:15;12.10;99.90
3202;DHT22;34843;48.744;8.958;2023-02-17T16:46:59;12.10;99.90
3202;DHT22;34843;48.744;8.958;2023-02-17T16:49:32;12.10;99.90
3202;DHT22;34843;48.744;8.958;2023-02-17T16:52:06;12.10;99.90
3202;DHT22;34843;48.744;8.958;2023-02-17T16:54:32;12.00;99.90
3202;DHT22;34843;48.744;8.958;2023-02-17T16:56:58;12.00;99.90
3202;DHT22;34843;48.744;8.958;2023-02-17T16:59:25;12.00;99.90
3202;DHT22;34843;48.744;8.958;2023-02-17T17:01:51;12.00;99.90
3202;DHT22;34843;48.744;8.958;2023-02-17T17:04:18;12.00;99.90
3202;DHT22;34843;48.744;8.958;2023-02-17T17:06:51;12.00;99.90
3202;DHT22;34843;48.744;8.958;2023-02-17T17:09:19;11.90;99.90
3202;DHT22;34843;48.744;8.958;2023-02-17T17:11:45;11.90;99.90
3202;DHT22;34843;48.744;8.958;2023-02-17T17:14:11;12.00;99.90
3202;DHT22;34843;48.744;8.958;2023-02-17T17:16:37;12.00;99.90
3202;DHT22;34843;48.744;8.958;2023-02-17T17:19:05;12.00;99.90
3202;DHT22;34843;48.744;8.958;2023-02-17T17:21:30;12.00;99.90
3202;DHT22;34843;48.744;8.958;2023-02-17T17:23:56;12.00;99.90
3202;DHT22;34843;48.744;8.958;2023-02-17T17:28:53;11.90;99.90
3202;DHT22;34843;48.744;8.958;2023-02-17T17:31:19;11.90;99.90
3202;DHT22;34843;48.744;8.958;2023-02-17T17:33:46;11.90;99.90
3202;DHT22;34843;48.744;8.958;2023-02-17T17:36:19;11.90;99.90
3202;DHT22;34843;48.744;8.958;2023-02-17T17:38:46;11.90;99.90